createdAt,value
2023-05-21T00:00:30.348Z,11.40
2023-05-21T00:02:59.107Z,12.43
2023-05-21T00:05:26.568Z,10.50
2023-05-21T00:07:54.866Z,11.93
2023-05-21T00:10:22.580Z,13.45
2023-05-21T00:12:49.783Z,10.73
2023-05-21T00:15:17.038Z,59.33
2023-05-21T00:17:46.078Z,29.12
2023-05-21T00:20:13.309Z,15.20
2023-05-21T00:22:42.320Z,10.60
2023-05-21T00:25:11.378Z,15.60
2023-05-21T00:27:39.378Z,14.00
2023-05-21T00:30:07.271Z,16.35
2023-05-21T00:32:34.934Z,22.92
2023-05-21T00:35:02.934Z,20.17
2023-05-21T00:37:34.360Z,25.08
2023-05-21T00:40:02.241Z,19.27
2023-05-21T00:42:30.714Z,23.00
2023-05-21T00:44:58.274Z,27.45
2023-05-21T00:47:29.607Z,15.63
2023-05-21T00:49:56.950Z,27.42
2023-05-21T00:52:26.787Z,15.63
2023-05-21T00:54:54.305Z,10.48
2023-05-21T00:57:23.927Z,16.02
2023-05-21T00:59:53.060Z,18.83
2023-05-21T01:02:20.771Z,9.60
2023-05-21T01:04:48.081Z,13.13
2023-05-21T01:07:15.209Z,10.63
2023-05-21T01:09:43.028Z,15.77
2023-05-21T01:12:11.157Z,11.80
2023-05-21T01:14:39.375Z,9.90
2023-05-21T01:17:10.400Z,14.00
2023-05-21T01:19:37.853Z,12.75
2023-05-21T01:22:07.360Z,11.85
2023-05-21T01:24:35.469Z,12.93
2023-05-21T01:27:05.300Z,11.05
2023-05-21T01:29:32.418Z,12.98
2023-05-21T01:32:16.594Z,10.10
2023-05-21T01:34:57.048Z,12.50
2023-05-21T01:37:31.640Z,10.48
2023-05-21T01:40:05.148Z,11.85
2023-05-21T01:42:34.502Z,11.57
2023-05-21T01:45:06.188Z,12.57
2023-05-21T01:47:34.886Z,10.85
2023-05-21T01:50:03.736Z,12.35
2023-05-21T01:52:30.938Z,10.07
2023-05-21T01:55:00.359Z,14.40
2023-05-21T01:57:27.600Z,11.93
2023-05-21T01:59:55.269Z,14.27
2023-05-21T02:02:22.773Z,12.32
2023-05-21T02:04:50.400Z,12.37
2023-05-21T02:07:18.426Z,12.55
2023-05-21T02:09:45.703Z,12.75
2023-05-21T02:12:13.375Z,12.40
2023-05-21T02:14:40.603Z,11.55
2023-05-21T02:17:08.185Z,10.82
2023-05-21T02:19:35.852Z,9.40
2023-05-21T02:22:03.444Z,32.35
2023-05-21T02:24:31.359Z,9.27
2023-05-21T02:26:58.657Z,11.82
2023-05-21T02:29:26.162Z,15.27
2023-05-21T02:31:53.371Z,10.23
2023-05-21T02:34:20.858Z,14.70
2023-05-21T02:36:48.542Z,10.20
2023-05-21T02:39:15.713Z,12.15
2023-05-21T02:41:42.934Z,73.03
2023-05-21T02:44:10.995Z,19.33
2023-05-21T02:46:38.190Z,10.27
2023-05-21T02:49:05.582Z,11.65
2023-05-21T02:51:33.127Z,10.85
2023-05-21T02:54:00.371Z,12.45
2023-05-21T02:56:27.650Z,13.40
2023-05-21T02:58:55.127Z,10.88
2023-05-21T03:01:22.601Z,10.80
2023-05-21T03:03:50.144Z,9.70
2023-05-21T03:06:17.725Z,43.87
2023-05-21T03:08:44.962Z,24.70
2023-05-21T03:11:12.165Z,14.10
2023-05-21T03:13:39.884Z,59.22
2023-05-21T03:16:07.234Z,16.30
2023-05-21T03:18:34.465Z,22.10
2023-05-21T03:21:02.085Z,13.18
2023-05-21T03:23:29.279Z,10.70
2023-05-21T03:25:56.488Z,11.55
2023-05-21T03:28:24.300Z,28.08
2023-05-21T03:30:52.180Z,31.98
2023-05-21T03:33:20.557Z,17.20
2023-05-21T03:35:48.066Z,11.15
2023-05-21T03:38:15.946Z,43.28
2023-05-21T03:40:43.202Z,49.85
2023-05-21T03:43:10.659Z,18.75
2023-05-21T03:45:38.203Z,11.02
2023-05-21T03:48:07.382Z,10.95
2023-05-21T03:50:35.039Z,15.10
2023-05-21T03:53:02.234Z,13.52
2023-05-21T03:55:30.397Z,8.50
2023-05-21T03:57:58.968Z,9.75
2023-05-21T04:00:26.250Z,9.98
2023-05-21T04:02:54.452Z,9.65
2023-05-21T04:05:21.667Z,10.85
2023-05-21T04:07:50.056Z,16.70
2023-05-21T04:10:17.684Z,11.45
2023-05-21T04:12:44.871Z,10.73
2023-05-21T04:15:12.555Z,10.77
2023-05-21T04:17:40.494Z,9.73
2023-05-21T04:20:08.378Z,9.07
2023-05-21T04:22:35.707Z,11.95
2023-05-21T04:25:03.450Z,7.90
2023-05-21T04:27:30.937Z,9.10
2023-05-21T04:29:58.476Z,9.30
2023-05-21T04:32:26.028Z,8.98
2023-05-21T04:34:53.269Z,10.18
2023-05-21T04:37:20.431Z,7.78
2023-05-21T04:39:48.098Z,10.30
2023-05-21T04:42:15.327Z,8.30
2023-05-21T04:44:44.349Z,8.70
2023-05-21T04:47:14.966Z,7.37
2023-05-21T04:49:42.386Z,8.75
2023-05-21T04:52:09.641Z,8.20
2023-05-21T04:54:38.934Z,8.10
2023-05-21T04:57:06.741Z,7.62
2023-05-21T04:59:34.814Z,11.95
2023-05-21T05:02:02.755Z,7.22
2023-05-21T05:04:29.937Z,8.65
2023-05-21T05:06:57.214Z,7.93
2023-05-21T05:09:25.278Z,18.75
2023-05-21T05:11:53.038Z,8.25
2023-05-21T05:14:20.325Z,11.45
2023-05-21T05:16:50.591Z,7.12
2023-05-21T05:19:17.966Z,6.37
2023-05-21T05:21:45.175Z,7.07
2023-05-21T05:24:12.660Z,8.25
2023-05-21T05:26:39.836Z,7.53
2023-05-21T05:29:07.042Z,7.55
2023-05-21T05:31:34.622Z,7.37
2023-05-21T05:34:02.251Z,8.27
2023-05-21T05:36:29.607Z,6.05
2023-05-21T05:38:57.107Z,7.37
2023-05-21T05:41:24.434Z,10.55
2023-05-21T05:43:51.668Z,8.80
2023-05-21T05:46:20.407Z,7.12
2023-05-21T05:48:47.662Z,6.75
2023-05-21T05:51:17.188Z,9.82
2023-05-21T05:53:45.851Z,6.07
2023-05-21T05:56:13.075Z,8.18
2023-05-21T05:58:41.124Z,5.50
2023-05-21T06:01:09.036Z,5.68
2023-05-21T06:03:36.691Z,13.18
2023-05-21T06:06:06.260Z,9.80
2023-05-21T06:08:37.343Z,5.62
2023-05-21T06:11:05.627Z,8.00
2023-05-21T06:13:32.879Z,8.60
2023-05-21T06:16:00.353Z,6.87
2023-05-21T06:18:27.902Z,7.30
2023-05-21T06:20:55.312Z,5.90
2023-05-21T06:23:22.898Z,6.35
2023-05-21T06:25:50.516Z,47.05
2023-05-21T06:28:18.283Z,5.80
2023-05-21T06:30:45.803Z,7.47
2023-05-21T06:33:13.347Z,6.32
2023-05-21T06:35:40.749Z,6.78
2023-05-21T06:38:08.234Z,10.75
2023-05-21T06:40:36.317Z,6.97
2023-05-21T06:43:05.301Z,8.32
2023-05-21T06:48:07.034Z,7.87
2023-05-21T06:50:34.404Z,7.50
2023-05-21T06:53:01.742Z,8.93
2023-05-21T06:55:29.376Z,11.90
2023-05-21T06:57:57.827Z,9.18
2023-05-21T07:00:25.494Z,11.82
2023-05-21T07:02:54.220Z,9.75
2023-05-21T07:05:21.633Z,7.80
2023-05-21T07:07:48.824Z,7.68
2023-05-21T07:10:16.502Z,7.72
2023-05-21T07:12:43.711Z,6.12
2023-05-21T07:15:11.221Z,7.65
2023-05-21T07:17:39.374Z,7.35
2023-05-21T07:20:10.193Z,7.65
2023-05-21T07:22:39.053Z,18.73
2023-05-21T07:25:08.697Z,6.68
2023-05-21T07:27:36.142Z,8.00
2023-05-21T07:30:04.038Z,7.25
2023-05-21T07:32:31.986Z,6.47
2023-05-21T07:35:02.126Z,7.78
2023-05-21T07:37:30.861Z,8.93
2023-05-21T07:39:58.796Z,7.35
2023-05-21T07:42:26.284Z,9.07
2023-05-21T07:44:53.653Z,7.50
2023-05-21T07:47:23.566Z,6.82
2023-05-21T07:49:51.123Z,7.18
2023-05-21T07:52:18.566Z,5.45
2023-05-21T07:54:46.138Z,10.38
2023-05-21T07:57:13.441Z,13.93
2023-05-21T07:59:41.950Z,7.32
2023-05-21T08:02:09.551Z,13.18
2023-05-21T08:04:40.950Z,5.90
2023-05-21T08:07:09.831Z,6.65
2023-05-21T08:09:37.453Z,8.70
2023-05-21T08:12:05.202Z,9.57
2023-05-21T08:14:32.446Z,7.75
2023-05-21T08:17:00.404Z,10.98
2023-05-21T08:19:27.891Z,8.95
2023-05-21T08:21:55.322Z,7.07
2023-05-21T08:24:24.110Z,6.22
2023-05-21T08:26:51.534Z,7.05
2023-05-21T08:29:18.827Z,6.45
2023-05-21T08:31:46.329Z,7.10
2023-05-21T08:34:13.556Z,7.70
2023-05-21T08:36:43.321Z,9.95
2023-05-21T08:39:13.109Z,18.37
2023-05-21T08:41:41.554Z,6.68
2023-05-21T08:44:12.280Z,5.65
2023-05-21T08:46:41.335Z,9.88
2023-05-21T08:49:12.208Z,5.05
2023-05-21T08:51:39.853Z,6.80
2023-05-21T08:54:08.021Z,7.05
2023-05-21T08:56:35.945Z,7.40
2023-05-21T08:59:03.419Z,9.80
2023-05-21T09:01:33.373Z,7.32
2023-05-21T09:04:18.859Z,10.35
2023-05-21T09:06:47.998Z,10.15
2023-05-21T09:09:33.208Z,7.40
2023-05-21T09:12:01.194Z,10.48
2023-05-21T09:14:28.925Z,6.32
2023-05-21T09:16:57.330Z,8.80
2023-05-21T09:19:25.049Z,5.62
2023-05-21T09:21:55.489Z,9.20
2023-05-21T09:24:23.262Z,5.78
2023-05-21T09:26:51.329Z,7.72
2023-05-21T09:29:19.135Z,6.78
2023-05-21T09:31:46.620Z,9.00
2023-05-21T09:34:14.620Z,9.82
2023-05-21T09:36:41.991Z,32.33
2023-05-21T09:39:11.267Z,31.33
2023-05-21T09:41:38.729Z,9.85
2023-05-21T09:44:05.938Z,7.60
2023-05-21T09:46:39.421Z,7.37
2023-05-21T09:49:07.528Z,15.60
2023-05-21T09:51:38.998Z,7.43
2023-05-21T09:54:06.385Z,5.30
2023-05-21T09:56:34.598Z,6.37
2023-05-21T09:59:04.412Z,6.90
2023-05-21T10:01:33.927Z,6.12
2023-05-21T10:04:07.000Z,8.20
2023-05-21T10:06:38.127Z,5.50
2023-05-21T10:09:10.648Z,6.85
2023-05-21T10:11:38.070Z,5.53
2023-05-21T10:14:12.099Z,8.52
2023-05-21T10:16:39.723Z,6.75
2023-05-21T10:19:11.049Z,7.60
2023-05-21T10:21:39.889Z,7.62
2023-05-21T10:24:09.135Z,6.95
2023-05-21T10:26:36.811Z,6.57
2023-05-21T10:29:04.244Z,12.50
2023-05-21T10:31:33.111Z,8.18
2023-05-21T10:34:00.639Z,5.32
2023-05-21T10:36:31.776Z,7.32
2023-05-21T10:39:00.716Z,11.65
2023-05-21T10:41:28.218Z,19.80
2023-05-21T10:44:20.316Z,11.48
2023-05-21T10:47:05.341Z,6.12
2023-05-21T10:49:35.851Z,5.65
2023-05-21T10:52:22.678Z,8.32
2023-05-21T10:55:05.266Z,8.35
2023-05-21T10:58:07.792Z,5.75
2023-05-21T11:00:35.228Z,12.23
2023-05-21T11:03:03.606Z,8.73
2023-05-21T11:05:41.762Z,14.57
2023-05-21T11:08:22.201Z,6.37
2023-05-21T11:10:58.972Z,8.18
2023-05-21T11:13:27.861Z,6.20
2023-05-21T11:15:57.749Z,6.47
2023-05-21T11:18:40.240Z,6.85
2023-05-21T11:21:18.592Z,7.45
2023-05-21T11:24:06.434Z,7.45
2023-05-21T11:26:48.938Z,5.85
2023-05-21T11:29:18.210Z,4.93
2023-05-21T11:31:47.242Z,6.35
2023-05-21T11:34:15.602Z,5.62
2023-05-21T11:36:49.692Z,5.37
2023-05-21T11:39:22.043Z,11.55
2023-05-21T11:41:54.125Z,9.23
2023-05-21T11:44:41.118Z,6.12
2023-05-21T11:47:10.101Z,6.22
2023-05-21T11:49:38.368Z,5.60
2023-05-21T11:52:07.091Z,6.65
2023-05-21T11:54:39.918Z,11.00
2023-05-21T11:57:08.155Z,7.57
2023-05-21T11:59:36.376Z,5.93
2023-05-21T12:02:04.166Z,7.12
2023-05-21T12:04:32.658Z,6.15
2023-05-21T12:07:05.089Z,5.85
2023-05-21T12:09:58.632Z,5.17
2023-05-21T12:12:33.050Z,6.05
2023-05-21T12:17:37.805Z,7.40
2023-05-21T12:20:08.215Z,5.37
2023-05-21T12:22:35.653Z,6.40
2023-05-21T12:25:04.343Z,5.40
2023-05-21T12:27:33.446Z,4.75
2023-05-21T12:30:02.219Z,14.55
2023-05-21T12:32:29.406Z,7.10
2023-05-21T12:34:56.556Z,5.72
2023-05-21T12:37:25.628Z,9.45
2023-05-21T12:39:59.010Z,7.25
2023-05-21T12:44:54.950Z,8.35
2023-05-21T12:47:26.585Z,8.23
2023-05-21T12:49:57.993Z,26.65
2023-05-21T12:52:25.361Z,11.45
2023-05-21T12:54:54.620Z,6.40
2023-05-21T12:57:48.388Z,7.60
2023-05-21T13:00:23.585Z,7.57
2023-05-21T13:02:51.717Z,7.75
2023-05-21T13:05:19.422Z,9.00
2023-05-21T13:07:47.639Z,7.25
2023-05-21T13:10:18.783Z,5.62
2023-05-21T13:12:46.289Z,8.55
2023-05-21T13:15:13.992Z,7.55
2023-05-21T13:17:41.459Z,5.72
2023-05-21T13:20:13.329Z,5.95
2023-05-21T13:22:48.074Z,5.93
2023-05-21T13:25:21.303Z,5.18
2023-05-21T13:27:49.684Z,6.40
2023-05-21T13:30:17.853Z,9.05
2023-05-21T13:32:45.219Z,5.10
2023-05-21T13:35:12.678Z,5.93
2023-05-21T13:37:40.957Z,8.80
2023-05-21T13:40:12.357Z,5.37
2023-05-21T13:42:40.375Z,6.25
2023-05-21T13:45:09.703Z,6.22
2023-05-21T13:47:39.983Z,8.48
2023-05-21T13:50:09.143Z,8.23
2023-05-21T13:52:36.919Z,5.15
2023-05-21T13:55:04.816Z,8.38
2023-05-21T13:57:32.577Z,5.43
2023-05-21T14:00:00.857Z,8.38
2023-05-21T14:02:28.221Z,6.82
2023-05-21T14:04:55.842Z,9.27
2023-05-21T14:07:23.139Z,7.37
2023-05-21T14:09:50.457Z,4.68
2023-05-21T14:12:18.225Z,5.57
2023-05-21T14:14:46.022Z,9.88
2023-05-21T14:17:13.225Z,27.77
2023-05-21T14:19:41.205Z,6.62
2023-05-21T14:22:08.306Z,6.37
2023-05-21T14:24:35.477Z,10.13
2023-05-21T14:27:02.935Z,5.72
2023-05-21T14:29:30.063Z,8.10
2023-05-21T14:31:57.369Z,7.28
2023-05-21T14:34:24.878Z,7.60
2023-05-21T14:36:52.073Z,6.53
2023-05-21T14:39:19.269Z,6.22
2023-05-21T14:41:46.798Z,6.47
2023-05-21T14:44:13.923Z,6.57
2023-05-21T14:46:41.139Z,8.65
2023-05-21T14:49:08.659Z,8.00
2023-05-21T14:51:35.997Z,5.68
2023-05-21T14:54:03.257Z,8.02
2023-05-21T14:56:30.766Z,8.05
2023-05-21T14:58:57.916Z,9.02
2023-05-21T15:01:25.156Z,18.00
2023-05-21T15:03:52.826Z,6.07
2023-05-21T15:06:20.129Z,8.52
2023-05-21T15:08:47.335Z,6.68
2023-05-21T15:11:14.853Z,9.30
2023-05-21T15:13:42.098Z,7.20
2023-05-21T15:16:09.331Z,5.37
2023-05-21T15:18:36.782Z,7.55
2023-05-21T15:21:05.088Z,7.40
2023-05-21T15:23:32.362Z,5.97
2023-05-21T15:25:59.821Z,9.07
2023-05-21T15:28:26.994Z,7.30
2023-05-21T15:30:54.102Z,8.25
2023-05-21T15:33:21.577Z,5.87
2023-05-21T15:35:48.891Z,7.35
2023-05-21T15:38:16.213Z,9.00
2023-05-21T15:40:44.264Z,7.60
2023-05-21T15:43:11.472Z,7.53
2023-05-21T15:45:39.110Z,7.57
2023-05-21T15:48:07.262Z,8.05
2023-05-21T15:50:35.858Z,7.45
2023-05-21T15:53:04.614Z,7.43
2023-05-21T15:55:33.371Z,8.23
2023-05-21T15:58:02.189Z,6.22
2023-05-21T16:00:29.856Z,7.37
2023-05-21T16:02:57.424Z,7.50
2023-05-21T16:05:25.698Z,7.18
2023-05-21T16:07:52.824Z,6.37
2023-05-21T16:10:21.304Z,8.00
2023-05-21T16:12:48.457Z,8.07
2023-05-21T16:15:15.717Z,5.97
2023-05-21T16:17:43.144Z,7.32
2023-05-21T16:20:11.098Z,5.75
2023-05-21T16:22:40.290Z,7.45
2023-05-21T16:25:08.165Z,9.10
2023-05-21T16:27:36.216Z,10.32
2023-05-21T16:30:04.143Z,7.72
2023-05-21T16:32:32.006Z,6.32
2023-05-21T16:34:59.261Z,9.70
2023-05-21T16:37:27.085Z,5.53
2023-05-21T16:39:54.550Z,7.65
2023-05-21T16:42:21.851Z,6.57
2023-05-21T16:44:49.020Z,6.68
2023-05-21T16:47:16.446Z,5.70
2023-05-21T16:49:43.594Z,8.23
2023-05-21T16:52:10.926Z,13.05
2023-05-21T16:54:38.468Z,9.60
2023-05-21T16:57:05.788Z,6.47
2023-05-21T16:59:32.939Z,10.85
2023-05-21T17:02:00.520Z,7.65
2023-05-21T17:04:28.081Z,9.38
2023-05-21T17:06:55.188Z,17.10
2023-05-21T17:09:22.783Z,13.68
2023-05-21T17:11:49.901Z,12.63
2023-05-21T17:14:32.616Z,7.70
2023-05-21T17:17:01.079Z,7.07
2023-05-21T17:19:28.379Z,6.70
2023-05-21T17:21:56.075Z,7.80
2023-05-21T17:24:23.684Z,8.65
2023-05-21T17:26:50.866Z,5.70
2023-05-21T17:29:18.609Z,23.25
2023-05-21T17:31:46.055Z,24.08
2023-05-21T17:34:13.285Z,7.82
2023-05-21T17:36:40.846Z,153.23
2023-05-21T17:39:08.314Z,211.02
2023-05-21T17:41:35.416Z,217.55
2023-05-21T17:44:02.755Z,135.90
2023-05-21T17:46:30.251Z,78.50
2023-05-21T17:48:57.404Z,48.13
2023-05-21T17:51:24.553Z,104.80
2023-05-21T17:53:51.902Z,69.90
2023-05-21T17:56:19.062Z,19.73
2023-05-21T17:58:46.152Z,10.80
2023-05-21T18:01:13.565Z,23.62
2023-05-21T18:03:41.254Z,11.80
2023-05-21T18:06:09.504Z,23.83
2023-05-21T18:08:37.016Z,33.75
2023-05-21T18:11:04.723Z,55.80
2023-05-21T18:13:31.931Z,11.65
2023-05-21T18:15:59.117Z,38.50
2023-05-21T18:18:26.566Z,33.90
2023-05-21T18:20:53.750Z,30.37
2023-05-21T18:23:21.038Z,76.43
2023-05-21T18:25:48.544Z,54.58
2023-05-21T18:28:15.669Z,13.70
2023-05-21T18:30:42.877Z,21.55
2023-05-21T18:33:11.173Z,12.63
2023-05-21T18:35:38.473Z,10.95
2023-05-21T18:38:09.825Z,9.57
2023-05-21T18:40:37.944Z,11.02
2023-05-21T18:43:06.344Z,18.75
2023-05-21T18:45:33.591Z,25.25
2023-05-21T18:48:01.311Z,55.35
2023-05-21T18:50:28.586Z,24.90
2023-05-21T18:52:56.225Z,19.92
2023-05-21T18:55:23.761Z,16.65
2023-05-21T18:57:51.160Z,12.10
2023-05-21T19:00:18.594Z,15.45
2023-05-21T19:02:46.747Z,27.75
2023-05-21T19:05:14.381Z,22.60
2023-05-21T19:07:41.966Z,26.23
2023-05-21T19:10:11.201Z,46.90
2023-05-21T19:12:39.530Z,13.73
2023-05-21T19:15:07.480Z,24.02
2023-05-21T19:17:36.237Z,26.37
2023-05-21T19:20:05.283Z,18.17
2023-05-21T19:22:32.768Z,48.63
2023-05-21T19:25:00.771Z,19.85
2023-05-21T19:27:29.357Z,53.85
2023-05-21T19:29:56.632Z,17.77
2023-05-21T19:32:24.113Z,100.22
2023-05-21T19:34:52.132Z,8.75
2023-05-21T19:37:19.313Z,60.58
2023-05-21T19:39:49.985Z,38.90
2023-05-21T19:42:18.826Z,19.02
2023-05-21T19:44:46.276Z,20.90
2023-05-21T19:47:13.845Z,32.05
2023-05-21T19:49:41.064Z,21.33
2023-05-21T19:52:08.209Z,20.70
2023-05-21T19:54:35.698Z,13.02
2023-05-21T19:57:03.367Z,15.02
2023-05-21T19:59:30.636Z,13.27
2023-05-21T20:01:58.053Z,12.93
2023-05-21T20:04:25.563Z,30.83
2023-05-21T20:06:52.778Z,22.05
2023-05-21T20:09:19.878Z,17.95
2023-05-21T20:11:48.200Z,15.48
2023-05-21T20:14:15.380Z,15.07
2023-05-21T20:16:42.596Z,16.48
2023-05-21T20:19:11.203Z,19.75
2023-05-21T20:21:38.425Z,13.55
2023-05-21T20:24:06.473Z,16.98
2023-05-21T20:26:36.966Z,26.02
2023-05-21T20:29:04.186Z,24.50
2023-05-21T20:31:31.712Z,16.67
2023-05-21T20:33:59.220Z,16.58
2023-05-21T20:36:27.149Z,20.00
2023-05-21T20:38:54.261Z,24.33
2023-05-21T20:41:21.865Z,15.88
2023-05-21T20:43:49.059Z,14.40
2023-05-21T20:46:17.345Z,16.02
2023-05-21T20:48:44.823Z,12.77
2023-05-21T20:51:12.182Z,14.50
2023-05-21T20:53:39.353Z,13.30
2023-05-21T20:56:08.305Z,15.35
2023-05-21T20:58:35.554Z,11.52
2023-05-21T21:01:03.864Z,13.70
2023-05-21T21:03:34.288Z,16.27
2023-05-21T21:06:01.627Z,17.85
2023-05-21T21:08:28.783Z,17.30
2023-05-21T21:10:56.392Z,11.75
2023-05-21T21:13:23.522Z,16.20
2023-05-21T21:15:50.760Z,14.40
2023-05-21T21:18:18.186Z,13.93
2023-05-21T21:20:49.520Z,10.35
2023-05-21T21:23:16.930Z,13.27
2023-05-21T21:25:44.441Z,10.77
2023-05-21T21:28:11.711Z,12.18
2023-05-21T21:30:40.992Z,10.57
2023-05-21T21:33:08.800Z,10.63
2023-05-21T21:35:36.005Z,14.10
2023-05-21T21:38:04.916Z,13.05
2023-05-21T21:40:32.397Z,13.85
2023-05-21T21:42:59.596Z,12.88
2023-05-21T21:45:26.814Z,14.43
2023-05-21T21:47:54.279Z,13.80
2023-05-21T21:50:21.467Z,10.43
2023-05-21T21:52:48.985Z,17.95
2023-05-21T21:55:16.477Z,27.48
2023-05-21T21:57:43.590Z,12.98
2023-05-21T22:00:20.944Z,16.73
2023-05-21T22:02:48.364Z,16.42
2023-05-21T22:05:16.412Z,9.75
2023-05-21T22:07:47.041Z,14.18
2023-05-21T22:10:16.125Z,11.12
2023-05-21T22:12:44.172Z,13.13
2023-05-21T22:15:18.238Z,11.32
2023-05-21T22:17:47.407Z,13.15
2023-05-21T22:20:15.105Z,10.15
2023-05-21T22:22:42.217Z,14.75
2023-05-21T22:25:09.765Z,13.27
2023-05-21T22:27:36.871Z,8.90
2023-05-21T22:30:04.966Z,11.75
2023-05-21T22:32:32.654Z,8.82
2023-05-21T22:34:59.754Z,13.62
2023-05-21T22:37:26.873Z,11.95
2023-05-21T22:39:54.348Z,12.35
2023-05-21T22:42:21.575Z,11.52
2023-05-21T22:44:48.685Z,10.73
2023-05-21T22:47:16.285Z,11.07
2023-05-21T22:49:43.632Z,13.30
2023-05-21T22:52:10.778Z,13.25
2023-05-21T22:54:38.192Z,12.55
2023-05-21T22:57:05.667Z,11.40
2023-05-21T22:59:33.217Z,12.02
2023-05-21T23:02:00.867Z,17.77
2023-05-21T23:04:43.288Z,12.88
2023-05-21T23:07:12.121Z,14.77
2023-05-21T23:09:39.383Z,13.73
2023-05-21T23:12:07.068Z,12.02
2023-05-21T23:14:34.490Z,9.93
2023-05-21T23:17:02.303Z,12.10
2023-05-21T23:19:29.953Z,10.93
2023-05-21T23:21:57.459Z,9.82
2023-05-21T23:24:24.615Z,9.75
2023-05-21T23:26:52.409Z,11.38
2023-05-21T23:29:19.846Z,13.15
2023-05-21T23:31:47.269Z,12.00
2023-05-21T23:34:14.467Z,10.93
2023-05-21T23:36:41.896Z,9.88
2023-05-21T23:39:09.359Z,9.10
2023-05-21T23:41:37.413Z,10.90
2023-05-21T23:44:04.910Z,11.07
2023-05-21T23:46:32.068Z,8.30
2023-05-21T23:48:59.180Z,8.05
2023-05-21T23:51:26.678Z,10.38
2023-05-21T23:53:54.120Z,10.63
2023-05-21T23:56:21.248Z,8.45
2023-05-21T23:58:48.610Z,9.52
